Time,TemperatureF,DewpointF,PressureIn,WindDirection,WindDirectionDegrees,WindSpeedMPH,WindSpeedGustMPH,Humidity,HourlyPrecipIn,Conditions,Clouds,dailyrainin,SoftwareType,DateUTC
2013-06-18 00:22:00,58.0,47.0,29.82,North,0,0.0,-999.0,67,0.00,,,-99.99,,2013-06-18 07:22:00,
2013-06-18 00:33:00,58.0,47.0,29.82,North,0,0.0,-999.0,67,0.00,,,-99.99,,2013-06-18 07:33:00,
2013-06-18 00:43:00,58.0,47.0,29.82,North,0,0.0,-999.0,67,0.00,,,-99.99,,2013-06-18 07:43:00,
2013-06-18 00:52:00,58.0,47.0,29.82,North,0,0.0,-999.0,67,0.00,,,-99.99,,2013-06-18 07:52:00,
2013-06-18 01:23:00,54.0,47.0,29.81,North,0,0.0,-999.0,76,0.00,,,-99.99,,2013-06-18 08:23:00,
2013-06-18 03:22:00,50.0,42.0,29.80,North,0,0.0,-999.0,73,0.00,,,-99.99,,2013-06-18 10:22:00,
2013-06-18 04:22:00,49.0,41.0,29.78,North,0,0.0,-999.0,73,0.00,,,-99.99,,2013-06-18 11:22:00,
2013-06-18 06:22:00,49.0,34.0,29.78,North,0,0.0,-999.0,57,0.00,,,-99.99,,2013-06-18 13:22:00,
2013-06-18 07:33:00,62.0,37.0,29.78,West,260,1.0,-999.0,40,0.00,,,-99.99,,2013-06-18 14:33:00,
2013-06-18 07:43:00,62.0,37.0,29.78,West,260,1.0,-999.0,40,0.00,,,-99.99,,2013-06-18 14:43:00,
2013-06-18 07:52:00,62.0,37.0,29.78,West,260,1.0,-999.0,40,0.00,,,-99.99,,2013-06-18 14:52:00,
2013-06-18 08:22:00,67.0,36.0,29.78,North,0,0.0,-999.0,32,0.00,,,-99.99,,2013-06-18 15:22:00,
2013-06-18 08:33:00,67.0,36.0,29.78,North,0,0.0,-999.0,32,0.00,,,-99.99,,2013-06-18 15:33:00,
2013-06-18 08:43:00,67.0,36.0,29.78,North,0,0.0,-999.0,32,0.00,,,-99.99,,2013-06-18 15:43:00,
2013-06-18 08:53:00,67.0,36.0,29.78,North,0,0.0,-999.0,32,0.00,,,-99.99,,2013-06-18 15:53:00,
2013-06-18 09:22:00,70.0,34.0,29.79,WSW,250,1.0,-999.0,27,0.00,,,-99.99,,2013-06-18 16:22:00,
2013-06-18 09:33:00,70.0,34.0,29.79,WSW,250,1.0,-999.0,27,0.00,,,-99.99,,2013-06-18 16:33:00,
2013-06-18 09:43:00,70.0,34.0,29.79,WSW,250,1.0,-999.0,27,0.00,,,-99.99,,2013-06-18 16:43:00,
2013-06-18 09:52:00,70.0,34.0,29.79,WSW,250,1.0,-999.0,27,0.00,,,-99.99,,2013-06-18 16:52:00,
2013-06-18 10:22:00,71.0,40.0,29.79,ESE,120,3.0,-999.0,32,0.00,,,-99.99,,2013-06-18 17:22:00,
2013-06-18 10:33:00,71.0,40.0,29.79,ESE,120,3.0,-999.0,32,0.00,,,-99.99,,2013-06-18 17:33:00,
2013-06-18 10:43:00,71.0,40.0,29.79,ESE,120,3.0,-999.0,32,0.00,,,-99.99,,2013-06-18 17:43:00,
2013-06-18 10:53:00,71.0,40.0,29.79,ESE,120,3.0,-999.0,32,0.00,,,-99.99,,2013-06-18 17:53:00,
2013-06-18 11:22:00,73.0,43.0,29.79,North,0,0.0,-999.0,34,0.00,,,-99.99,,2013-06-18 18:22:00,
2013-06-18 11:33:00,73.0,43.0,29.79,North,0,0.0,-999.0,34,0.00,,,-99.99,,2013-06-18 18:33:00,
2013-06-18 11:42:00,73.0,43.0,29.79,North,0,0.0,-999.0,34,0.00,,,-99.99,,2013-06-18 18:42:00,
2013-06-18 11:53:00,73.0,43.0,29.79,North,0,0.0,-999.0,34,0.00,,,-99.99,,2013-06-18 18:53:00,
2013-06-18 12:22:00,74.0,43.0,29.79,North,0,0.0,-999.0,33,0.00,,,-99.99,,2013-06-18 19:22:00,
2013-06-18 12:33:00,74.0,43.0,29.79,North,0,0.0,-999.0,33,0.00,,,-99.99,,2013-06-18 19:33:00,
2013-06-18 12:43:00,74.0,43.0,29.79,North,0,0.0,-999.0,33,0.00,,,-99.99,,2013-06-18 19:43:00,
2013-06-18 12:52:00,74.0,43.0,29.79,North,0,0.0,-999.0,33,0.00,,,-99.99,,2013-06-18 19:52:00,
2013-06-18 13:33:00,73.0,43.0,29.78,North,0,0.0,-999.0,34,0.00,,,-99.99,,2013-06-18 20:33:00,
2013-06-18 13:43:00,73.0,43.0,29.78,North,0,0.0,-999.0,34,0.00,,,-99.99,,2013-06-18 20:43:00,
2013-06-18 13:52:00,73.0,43.0,29.78,North,0,0.0,-999.0,34,0.00,,,-99.99,,2013-06-18 20:52:00,
2013-06-18 14:33:00,73.0,40.0,29.78,SE,130,6.0,-999.0,30,0.00,,,-99.99,,2013-06-18 21:33:00,
2013-06-18 14:43:00,73.0,40.0,29.78,SE,130,6.0,-999.0,30,0.00,,,-99.99,,2013-06-18 21:43:00,
2013-06-18 14:52:00,73.0,40.0,29.78,SE,130,6.0,-999.0,30,0.00,,,-99.99,,2013-06-18 21:52:00,
2013-06-18 15:34:00,73.0,41.0,29.78,East,90,2.0,-999.0,31,0.00,,,-99.99,,2013-06-18 22:34:00,
2013-06-18 15:42:00,73.0,41.0,29.78,East,90,2.0,-999.0,31,0.00,,,-99.99,,2013-06-18 22:42:00,
2013-06-18 15:53:00,73.0,41.0,29.78,East,90,2.0,-999.0,31,0.00,,,-99.99,,2013-06-18 22:53:00,
2013-06-18 16:35:00,72.0,41.0,29.77,SSW,200,4.0,-999.0,33,0.00,,,-99.99,,2013-06-18 23:35:00,
2013-06-18 16:45:00,72.0,41.0,29.77,SSW,200,4.0,-999.0,33,0.00,,,-99.99,,2013-06-18 23:45:00,
2013-06-18 16:53:00,72.0,41.0,29.77,SSW,200,4.0,-999.0,33,0.00,,,-99.99,,2013-06-18 23:53:00,
2013-06-18 17:33:00,70.0,45.0,29.75,SSW,210,2.0,-999.0,41,0.00,,,-99.99,,2013-06-19 00:33:00,
2013-06-18 17:43:00,70.0,45.0,29.75,SSW,210,2.0,-999.0,41,0.00,,,-99.99,,2013-06-19 00:43:00,
2013-06-18 17:53:00,70.0,45.0,29.75,SSW,210,2.0,-999.0,41,0.00,,,-99.99,,2013-06-19 00:53:00,
2013-06-18 18:32:00,67.0,47.0,29.73,North,0,0.0,-999.0,48,0.00,,,-99.99,,2013-06-19 01:32:00,
2013-06-18 18:42:00,67.0,47.0,29.73,North,0,0.0,-999.0,48,0.00,,,-99.99,,2013-06-19 01:42:00,
2013-06-18 18:53:00,67.0,47.0,29.73,North,0,0.0,-999.0,48,0.00,,,-99.99,,2013-06-19 01:53:00,
2013-06-18 19:32:00,64.0,47.0,29.74,South,180,3.0,-999.0,55,0.00,,,-99.99,,2013-06-19 02:32:00,
2013-06-18 19:42:00,64.0,47.0,29.74,South,180,3.0,-999.0,55,0.00,,,-99.99,,2013-06-19 02:42:00,
2013-06-18 19:51:00,64.0,47.0,29.74,South,180,3.0,-999.0,55,0.00,,,-99.99,,2013-06-19 02:51:00,
2013-06-18 20:33:00,61.0,48.0,29.73,South,170,3.0,-999.0,63,0.00,,,-99.99,,2013-06-19 03:33:00,
2013-06-18 20:42:00,61.0,48.0,29.73,South,170,3.0,-999.0,63,0.00,,,-99.99,,2013-06-19 03:42:00,
2013-06-18 20:52:00,61.0,48.0,29.73,South,170,3.0,-999.0,63,0.00,,,-99.99,,2013-06-19 03:52:00,
2013-06-18 21:22:00,60.0,45.0,29.74,North,0,0.0,-999.0,57,0.00,,,-99.99,,2013-06-19 04:22:00,
2013-06-18 21:32:00,60.0,45.0,29.74,North,0,0.0,-999.0,57,0.00,,,-99.99,,2013-06-19 04:32:00,
2013-06-18 21:42:00,60.0,45.0,29.74,North,0,0.0,-999.0,57,0.00,,,-99.99,,2013-06-19 04:42:00,
2013-06-18 21:52:00,60.0,45.0,29.74,North,0,0.0,-999.0,57,0.00,,,-99.99,,2013-06-19 04:52:00,
2013-06-18 22:22:00,60.0,37.0,29.74,ESE,110,1.0,-999.0,43,0.00,,,-99.99,,2013-06-19 05:22:00,
2013-06-18 22:32:00,60.0,37.0,29.74,ESE,110,1.0,-999.0,43,0.00,,,-99.99,,2013-06-19 05:32:00,
2013-06-18 22:42:00,60.0,37.0,29.74,ESE,110,1.0,-999.0,43,0.00,,,-99.99,,2013-06-19 05:42:00,
2013-06-18 22:52:00,60.0,37.0,29.74,ESE,110,1.0,-999.0,43,0.00,,,-99.99,,2013-06-19 05:52:00,
2013-06-18 23:33:00,60.0,35.0,29.74,North,0,0.0,-999.0,39,0.00,,,-99.99,,2013-06-19 06:33:00,
2013-06-18 23:42:00,60.0,35.0,29.74,North,0,0.0,-999.0,39,0.00,,,-99.99,,2013-06-19 06:42:00,
2013-06-18 23:52:00,60.0,35.0,29.74,North,0,0.0,-999.0,39,0.00,,,-99.99,,2013-06-19 06:52:00,